Røst Airport

Airport
ICAO code: 
ENRS
IATA Code: 
RET
Summary
ICAO Region: 
EUR
Territory: 
Location: 
Røst, Nordland,
Serving: 
Røstlandet
Elevation: 
10 ft
Coordinates: 
Aerial View: 
67° 31' 37.441" N, 12° 6' 9.419" E
Metar
Observation
ENRS 260720Z AUTO 02007KT 9999 SCT059 BKN090 09/07 Q1001
Station
Rost Flyplass
Date/Time
2022-05-26 07:20:00
Wind direction
20°
Wind speed
07 kts
Lowest cloud amount
scattered clouds
Temperature
9°C
Dew point
7°C
Humidity
87%
QNH
1001 hPa
Weather condition
n/a

Description

Regional airport serving the island and municipality of Røst in Nordland, Norway.

Climatology

Subpolar Oceanic climate (Köppen climate classification Cfc) - uniform precipitation distribution, temperatures are moderated by the proximity of the ocean and warm currents - cool summers and comparatively mild winters.

Runways

Designator Length Width Surface Rops
3/21 880 0 UNK No/No
Airport map: 
Aerial View: 

SKYbrary Partners:

Safety knowledge contributed by: